Time;durP1;ratioP1;P1;durP2;ratioP2;P2;SDS_P1;SDS_P2;PMS_P1;PMS_P2;Temp;Humidity;BMP_temperature;BMP_pressure;BME280_temperature;BME280_humidity;BME280_pressure;Samples;Min_cycle;Max_cycle;Signal;HPM_P1;HPM_P2
2021/12/10 00:12:22;;;;;;;0.20;0.20;;;4.80;93.60;3.40;99685.00;;;;31145445;28;20099;-79
2021/12/10 00:27:29;;;;;;;0.63;0.63;;;4.50;93.60;3.20;99657.00;;;;31181561;28;20499;-79
2021/12/10 00:42:33;;;;;;;1.00;1.00;;;4.50;93.60;3.00;99633.00;;;;31158602;28;20045;-79
2021/12/10 00:57:38;;;;;;;0.30;0.30;;;4.30;93.80;3.00;99611.00;;;;31148691;28;20621;-78
2021/12/10 01:12:46;;;;;;;0.35;0.35;;;4.30;93.70;2.90;99571.00;;;;31151595;28;20065;-79
2021/12/10 01:27:49;;;;;;;0.20;0.20;;;4.10;93.70;2.70;99540.00;;;;31136895;28;20049;-78
2021/12/10 01:43:00;;;;;;;0.30;0.30;;;4.00;93.70;2.50;99522.00;;;;31147965;28;20046;-78
2021/12/10 01:58:07;;;;;;;0.30;0.30;;;3.90;93.80;2.50;99497.00;;;;31151466;28;20081;-78
2021/12/10 02:13:14;;;;;;;0.30;0.30;;;3.80;93.90;2.40;99468.00;;;;31136902;28;20060;-77
2021/12/10 02:28:20;;;;;;;0.30;0.30;;;5.20;94.60;2.30;99437.00;;;;31139665;28;20045;-78
2021/12/10 02:43:23;;;;;;;0.30;0.30;;;3.50;93.90;2.30;99406.00;;;;31127866;28;20072;-78
2021/12/10 02:58:26;;;;;;;0.30;0.30;;;3.60;94.00;2.20;99360.00;;;;31074076;28;20948;-78
2021/12/10 03:13:28;;;;;;;0.30;0.30;;;3.60;93.50;2.20;99335.00;;;;31127469;28;20707;-78
2021/12/10 03:28:30;;;;;;;0.20;0.20;;;3.50;93.50;2.10;99319.00;;;;31163139;28;20142;-77
2021/12/10 03:43:32;;;;;;;0.20;0.20;;;3.50;93.50;2.00;99294.00;;;;31183389;28;20053;-77
2021/12/10 03:58:34;;;;;;;0.30;0.30;;;3.40;93.90;2.00;99265.00;;;;31162866;28;20405;-77
2021/12/10 04:13:43;;;;;;;0.30;0.30;;;3.50;93.90;2.00;99252.00;;;;31173789;28;20587;-78
2021/12/10 04:28:46;;;;;;;0.22;0.22;;;3.40;93.50;2.00;99232.00;;;;31158869;28;20071;-77
2021/12/10 04:43:48;;;;;;;0.32;0.32;;;3.30;93.30;2.00;99210.00;;;;31150611;28;20053;-77
2021/12/10 04:58:49;;;;;;;0.40;0.40;;;3.40;93.10;2.00;99157.00;;;;31161806;28;20053;-77
2021/12/10 05:13:56;;;;;;;0.30;0.30;;;3.60;93.50;2.00;99128.00;;;;31171446;28;20057;-78
2021/12/10 05:28:58;;;;;;;0.20;0.20;;;3.40;93.10;2.00;99121.00;;;;31161101;28;20041;-77
2021/12/10 05:43:59;;;;;;;0.43;0.43;;;3.80;93.10;2.00;99096.00;;;;31149910;28;20045;-78
2021/12/10 05:59:01;;;;;;;0.50;0.50;;;2.80;92.70;2.10;99087.00;;;;31161323;28;20413;-78
2021/12/10 06:14:16;;;;;;;0.40;0.40;;;3.40;92.90;2.20;99074.00;;;;31161631;28;20136;-78
2021/12/10 06:29:23;;;;;;;0.20;0.20;;;3.60;92.80;2.30;99050.00;;;;31160487;28;20045;-78
2021/12/10 06:44:25;;;;;;;0.35;0.35;;;3.60;92.70;2.30;99054.00;;;;31149106;28;20053;-76
2021/12/10 06:59:27;;;;;;;0.30;0.30;;;3.70;93.30;2.40;99044.00;;;;31147481;28;20045;-77
2021/12/10 07:14:28;;;;;;;0.98;0.90;;;3.70;92.60;2.40;99039.00;;;;31123352;28;20073;-77
2021/12/10 07:29:31;;;;;;;0.20;0.20;;;3.80;92.50;2.60;99049.00;;;;31141640;28;20042;-77
2021/12/10 07:44:32;;;;;;;0.98;0.98;;;3.90;92.40;2.60;99042.00;;;;31140513;28;20535;-79
2021/12/10 07:59:35;;;;;;;0.30;0.30;;;4.00;92.40;2.70;99059.00;;;;31131646;28;20053;-77
2021/12/10 08:14:37;;;;;;;0.20;0.20;;;4.10;92.10;2.90;99052.00;;;;31130620;28;20050;-76
2021/12/10 08:30:15;;;;;;;0.30;0.30;;;4.20;91.90;2.90;99058.00;;;;31155083;28;20041;-76
2021/12/10 08:45:19;;;;;;;0.50;0.50;;;4.10;92.30;3.10;99058.00;;;;31150079;28;20057;-77
2021/12/10 09:00:22;;;;;;;0.20;0.20;;;4.40;91.80;3.20;99064.00;;;;31177752;28;20041;-77
2021/12/10 09:15:26;;;;;;;0.30;0.30;;;4.30;92.50;3.10;99076.00;;;;31162694;28;20052;-76
2021/12/10 09:30:30;;;;;;;0.20;0.20;;;4.30;92.80;3.10;99089.00;;;;31152806;28;20038;-76
2021/12/10 09:45:35;;;;;;;0.40;0.40;;;4.50;92.00;3.30;99081.00;;;;31175418;28;20103;-78
2021/12/10 10:00:54;;;;;;;0.20;0.20;;;4.70;91.40;3.60;99088.00;;;;31140789;28;20046;-76
2021/12/10 10:15:58;;;;;;;0.30;0.30;;;4.80;91.40;3.80;99086.00;;;;31148729;28;20305;-76
2021/12/10 10:31:18;;;;;;;0.30;0.30;;;5.20;91.10;4.10;99085.00;;;;31140637;28;20065;-75
2021/12/10 10:46:21;;;;;;;0.30;0.30;;;5.40;90.40;4.30;99075.00;;;;31166693;28;20041;-77
2021/12/10 11:01:37;;;;;;;0.30;0.30;;;5.70;89.10;4.60;99082.00;;;;31143454;28;20548;-78
2021/12/10 11:16:44;;;;;;;0.20;0.20;;;5.90;89.30;4.80;99079.00;;;;31145748;28;20041;-77
2021/12/10 11:32:01;;;;;;;0.40;0.40;;;6.00;87.90;4.90;99092.00;;;;31169247;28;20060;-77
2021/12/10 11:47:27;;;;;;;0.22;0.22;;;6.50;87.10;4.90;99097.00;;;;31179335;28;20046;-78
2021/12/10 12:02:45;;;;;;;0.20;0.20;;;6.10;85.80;5.00;99100.00;;;;31175803;28;20049;-79
2021/12/10 12:18:05;;;;;;;0.30;0.30;;;6.10;85.80;4.90;99115.00;;;;31185996;28;20049;-77
2021/12/10 12:33:10;;;;;;;0.63;0.63;;;6.10;85.70;5.00;99130.00;;;;31223038;28;20505;-77
2021/12/10 12:48:14;;;;;;;0.20;0.20;;;6.20;85.50;5.00;99129.00;;;;31176439;28;20502;-78
2021/12/10 13:03:32;;;;;;;0.22;0.22;;;6.20;85.60;5.10;99156.00;;;;31184820;28;20119;-77
2021/12/10 13:18:33;;;;;;;0.25;0.25;;;6.20;85.00;5.00;99162.00;;;;31152413;28;20045;-77
2021/12/10 13:33:39;;;;;;;0.30;0.30;;;7.00;85.10;5.00;99181.00;;;;31189336;28;20041;-77
2021/12/10 13:48:51;;;;;;;0.30;0.30;;;6.20;84.30;5.00;99203.00;;;;31157918;28;20048;-79
2021/12/10 14:04:03;;;;;;;0.30;0.30;;;6.20;84.80;4.90;99232.00;;;;31196128;28;20049;-78
2021/12/10 14:19:04;;;;;;;6.13;2.80;;;6.10;84.20;4.90;99248.00;;;;31178242;28;20166;-78
2021/12/10 14:34:14;;;;;;;0.30;0.30;;;6.10;84.20;4.80;99265.00;;;;31161422;28;20048;-78
2021/12/10 14:49:31;;;;;;;0.25;0.25;;;6.10;84.20;4.80;99292.00;;;;31161765;28;20532;-79
2021/12/10 15:04:59;;;;;;;0.30;0.30;;;6.10;85.30;4.80;99316.00;;;;31151035;28;20080;-78
2021/12/10 15:20:30;;;;;;;0.20;0.20;;;6.00;84.90;4.70;99344.00;;;;31158820;28;20046;-78
2021/12/10 15:35:45;;;;;;;0.30;0.30;;;5.90;85.80;4.50;99374.00;;;;31179446;28;20049;-79
2021/12/10 15:50:53;;;;;;;0.22;0.22;;;5.70;86.90;4.40;99424.00;;;;31203255;28;20621;-78
2021/12/10 16:06:00;;;;;;;0.25;0.25;;;5.70;87.70;4.40;99451.00;;;;31179002;28;20095;-78
2021/12/10 16:21:13;;;;;;;0.20;0.20;;;5.60;87.80;4.30;99495.00;;;;31193251;28;20054;-78
2021/12/10 16:36:17;;;;;;;0.30;0.30;;;5.60;88.90;4.30;99512.00;;;;31139802;28;20041;-79
2021/12/10 16:51:26;;;;;;;0.20;0.20;;;5.60;90.10;4.20;99531.00;;;;31158953;28;20037;-80
2021/12/10 17:06:36;;;;;;;0.30;0.30;;;5.50;90.10;4.00;99573.00;;;;31132447;28;20050;-80
2021/12/10 17:22:12;;;;;;;0.22;0.22;;;6.30;90.90;3.90;99593.00;;;;31141819;28;20526;-78
2021/12/10 17:37:23;;;;;;;0.30;0.30;;;5.20;90.30;3.80;99625.00;;;;31128075;28;20052;-78
2021/12/10 17:52:30;;;;;;;0.20;0.20;;;5.10;90.50;3.80;99648.00;;;;31149015;28;20673;-78
2021/12/10 18:07:44;;;;;;;0.22;0.22;;;5.10;90.20;3.70;99678.00;;;;31119589;28;20056;-78
2021/12/10 18:23:11;;;;;;;0.68;0.68;;;5.00;90.20;3.60;99709.00;;;;31148586;28;20045;-77
2021/12/10 18:38:19;;;;;;;0.30;0.30;;;4.90;90.80;3.60;99740.00;;;;31136337;28;20045;-77
2021/12/10 18:53:26;;;;;;;0.20;0.20;;;4.90;90.60;3.70;99768.00;;;;31155420;28;20060;-78
2021/12/10 19:08:32;;;;;;;0.30;0.30;;;5.00;91.00;3.70;99811.00;;;;31142520;28;20056;-77
2021/12/10 19:23:41;;;;;;;;;;;4.90;90.60;3.50;99840.00;;;;31135519;28;20052;-78
2021/12/10 19:48:23;;;;;;;0.20;0.20;;;4.70;90.20;3.30;99875.00;;;;31386442;28;20433;-79
2021/12/10 20:03:40;;;;;;;0.20;0.20;;;4.60;90.70;3.00;99913.00;;;;31243206;28;20475;-79
2021/12/10 20:18:52;;;;;;;0.30;0.30;;;4.20;90.90;2.50;99951.00;;;;31226394;28;20073;-78
2021/12/10 20:34:11;;;;;;;0.28;0.28;;;3.70;91.30;2.10;99977.00;;;;31195017;28;20140;-78
2021/12/10 20:49:22;;;;;;;0.38;0.38;;;3.20;91.60;1.70;100009.00;;;;31204143;28;20041;-78
2021/12/10 21:04:30;;;;;;;0.30;0.30;;;3.10;91.80;1.50;100054.00;;;;31263611;28;20128;-78
2021/12/10 21:19:38;;;;;;;0.28;0.28;;;2.40;92.00;1.30;100075.00;;;;31243632;28;20774;-78
2021/12/10 21:35:13;;;;;;;0.30;0.30;;;2.50;92.20;1.00;100099.00;;;;31260274;28;20055;-78
2021/12/10 21:50:36;;;;;;;1.77;1.70;;;2.30;92.20;0.70;100128.00;;;;31271587;28;20124;-77
2021/12/10 22:05:46;;;;;;;0.30;0.30;;;2.30;92.80;0.50;100150.00;;;;31259741;28;20075;-77
2021/12/10 22:21:17;;;;;;;0.30;0.30;;;1.80;92.30;0.30;100176.00;;;;31251785;28;20048;-76
2021/12/10 22:36:34;;;;;;;0.40;0.40;;;1.70;92.30;0.00;100215.00;;;;31230177;28;20048;-76
2021/12/10 22:52:02;;;;;;;0.63;0.63;;;1.60;93.10;-0.20;100262.00;;;;31247842;28;20040;-76
2021/12/10 23:22:34;;;;;;;0.30;0.30;;;1.30;93.20;-0.30;100307.00;;;;31165129;28;20714;-76
2021/12/10 23:37:40;;;;;;;0.45;0.45;;;1.30;93.70;-0.40;100312.00;;;;31216677;28;20045;-76
2021/12/10 23:52:52;;;;;;;0.23;0.23;;;2.60;93.70;-0.50;100341.00;;;;31237339;28;20068;-76
